METAR Data
IDs: Format: Raw Decoded Include TAF

Data at: 1452 UTC 21 Apr 2021

PTTP 211351Z 22003KT 15SM BKN018TCU OVC300 24/24 A2985 RMK SHRAE05 TCU ALQDS SLP107 T02440237